Time;durP1;ratioP1;P1;durP2;ratioP2;P2;SDS_P1;SDS_P2;PMS_P1;PMS_P2;Temp;Humidity;BMP_temperature;BMP_pressure;BME280_temperature;BME280_humidity;BME280_pressure;Samples;Min_cycle;Max_cycle;Signal;HPM_P1;HPM_P2
2021/10/23 00:00:12;;;;;;;;;;;16.10;99.90;;;;;;6106443;23;19905;-79
2021/10/23 00:02:37;;;;;;;;;;;16.20;99.90;;;;;;6131802;23;19936;-78
2021/10/23 00:05:03;;;;;;;;;;;16.20;99.90;;;;;;6130975;23;19905;-78
2021/10/23 00:07:29;;;;;;;;;;;16.30;99.90;;;;;;6131629;23;19912;-79
2021/10/23 00:09:55;;;;;;;;;;;16.20;99.90;;;;;;6131832;23;19909;-78
2021/10/23 00:12:21;;;;;;;;;;;16.20;99.90;;;;;;6128790;23;19905;-78
2021/10/23 00:14:46;;;;;;;;;;;16.10;99.90;;;;;;6131917;23;19912;-78
2021/10/23 00:17:12;;;;;;;;;;;16.00;99.90;;;;;;6131527;23;19996;-79
2021/10/23 00:19:38;;;;;;;;;;;15.90;99.90;;;;;;6131412;23;19968;-78
2021/10/23 00:22:03;;;;;;;;;;;15.80;99.90;;;;;;6131129;23;20076;-78
2021/10/23 00:24:29;;;;;;;;;;;15.70;99.90;;;;;;6132282;23;19939;-79
2021/10/23 00:26:55;;;;;;;;;;;15.60;99.90;;;;;;6131248;23;19916;-79
2021/10/23 00:29:20;;;;;;;;;;;15.50;99.90;;;;;;6129946;23;19921;-78
2021/10/23 00:31:46;;;;;;;;;;;15.60;99.90;;;;;;6130426;23;19916;-78
2021/10/23 00:34:13;;;;;;;;;;;15.50;99.90;;;;;;6131281;23;19908;-79
2021/10/23 00:36:39;;;;;;;;;;;15.50;99.90;;;;;;6131458;23;19991;-78
2021/10/23 00:39:04;;;;;;;;;;;15.50;99.90;;;;;;6131096;23;19905;-81
2021/10/23 00:41:30;;;;;;;;;;;15.40;99.90;;;;;;6130914;23;19964;-79
2021/10/23 00:43:56;;;;;;;;;;;15.20;99.90;;;;;;6131431;23;19905;-78
2021/10/23 00:46:22;;;;;;;;;;;15.20;99.90;;;;;;6131386;23;19909;-79
2021/10/23 00:48:48;;;;;;;;;;;15.20;99.90;;;;;;6130798;23;19945;-79
2021/10/23 00:51:14;;;;;;;;;;;15.20;99.90;;;;;;6130234;23;20329;-79
2021/10/23 00:53:41;;;;;;;;;;;15.20;99.90;;;;;;6102834;23;19905;-79
2021/10/23 00:56:06;;;;;;;;;;;15.10;99.90;;;;;;6129295;23;19987;-79
2021/10/23 00:58:32;;;;;;;;;;;15.00;99.90;;;;;;6129240;23;19905;-79
2021/10/23 01:00:58;;;;;;;;;;;14.90;99.90;;;;;;6105216;23;19909;-79
2021/10/23 01:03:24;;;;;;;;;;;14.90;99.90;;;;;;6130768;23;19953;-79
2021/10/23 01:05:50;;;;;;;;;;;14.90;99.90;;;;;;6104351;23;20348;-79
2021/10/23 01:08:16;;;;;;;;;;;14.90;99.90;;;;;;6104682;23;20241;-79
2021/10/23 01:10:41;;;;;;;;;;;14.90;99.90;;;;;;6131068;23;19912;-79
2021/10/23 01:13:07;;;;;;;;;;;14.90;99.90;;;;;;6130638;23;19905;-78
2021/10/23 01:15:33;;;;;;;;;;;14.90;99.90;;;;;;6129319;23;19904;-79
2021/10/23 01:18:01;;;;;;;;;;;14.90;99.90;;;;;;6130416;23;19905;-79
2021/10/23 01:20:27;;;;;;;;;;;15.00;99.90;;;;;;6130932;23;19939;-79
2021/10/23 01:22:53;;;;;;;;;;;15.00;99.90;;;;;;6104833;23;20317;-79
2021/10/23 01:25:20;;;;;;;;;;;15.10;99.90;;;;;;6130490;23;19905;-78
2021/10/23 01:27:46;;;;;;;;;;;15.10;99.90;;;;;;6129053;23;19997;-79
2021/10/23 01:30:12;;;;;;;;;;;15.10;99.90;;;;;;6130291;23;20412;-82
2021/10/23 01:32:38;;;;;;;;;;;15.30;99.90;;;;;;6105158;23;19928;-78
2021/10/23 01:35:04;;;;;;;;;;;15.30;99.90;;;;;;6130669;23;20265;-79
2021/10/23 01:37:37;;;;;;;;;;;15.40;99.90;;;;;;6129085;23;19920;-78
2021/10/23 01:40:04;;;;;;;;;;;15.30;99.90;;;;;;6128855;23;20281;-78
2021/10/23 01:42:30;;;;;;;;;;;15.30;99.90;;;;;;6127023;23;19987;-79
2021/10/23 01:44:56;;;;;;;;;;;15.30;99.90;;;;;;6125719;23;19912;-78
2021/10/23 01:47:22;;;;;;;;;;;15.20;99.90;;;;;;6127219;23;19912;-79
2021/10/23 01:49:48;;;;;;;;;;;15.10;99.90;;;;;;6128531;23;19988;-78
2021/10/23 01:52:14;;;;;;;;;;;15.10;99.90;;;;;;6129254;23;19912;-80
2021/10/23 01:54:39;;;;;;;;;;;15.10;99.90;;;;;;6128221;23;19916;-79
2021/10/23 01:57:05;;;;;;;;;;;15.20;99.90;;;;;;6126223;23;20337;-78
2021/10/23 01:59:31;;;;;;;;;;;15.10;99.90;;;;;;6101461;23;19975;-79
2021/10/23 02:01:57;;;;;;;;;;;15.10;99.90;;;;;;6127831;23;19957;-78
2021/10/23 02:04:22;;;;;;;;;;;15.10;99.90;;;;;;6127170;23;19905;-78
2021/10/23 02:06:48;;;;;;;;;;;15.10;99.90;;;;;;6127988;23;19909;-80
2021/10/23 02:09:14;;;;;;;;;;;15.10;99.90;;;;;;6127693;23;19913;-83
2021/10/23 02:11:39;;;;;;;;;;;15.10;99.90;;;;;;6128437;23;19905;-78
2021/10/23 02:14:05;;;;;;;;;;;15.10;99.90;;;;;;6127583;23;19909;-78
2021/10/23 02:16:31;;;;;;;;;;;15.10;99.90;;;;;;6127594;23;19984;-78
2021/10/23 02:18:56;;;;;;;;;;;15.10;99.90;;;;;;6132733;23;20218;-79
2021/10/23 02:21:22;;;;;;;;;;;15.10;99.90;;;;;;6132734;23;19917;-78
2021/10/23 02:23:48;;;;;;;;;;;15.10;99.90;;;;;;6131214;23;19915;-79
2021/10/23 02:26:14;;;;;;;;;;;15.20;99.90;;;;;;6128899;23;19928;-79
2021/10/23 02:28:39;;;;;;;;;;;15.10;99.90;;;;;;6128126;23;19909;-79
2021/10/23 02:31:05;;;;;;;;;;;15.00;99.90;;;;;;6130377;23;19911;-79
2021/10/23 02:33:31;;;;;;;;;;;15.00;99.90;;;;;;6130347;23;19906;-78
2021/10/23 02:35:56;;;;;;;;;;;15.00;99.90;;;;;;6130047;23;19913;-78
2021/10/23 02:38:22;;;;;;;;;;;15.00;99.90;;;;;;6127421;23;19911;-78
2021/10/23 02:40:48;;;;;;;;;;;14.90;99.90;;;;;;6128415;23;19956;-78
2021/10/23 02:43:14;;;;;;;;;;;14.80;99.90;;;;;;6129268;23;20249;-79
2021/10/23 02:45:39;;;;;;;;;;;14.70;99.90;;;;;;6129762;23;19905;-79
2021/10/23 02:48:05;;;;;;;;;;;14.70;99.90;;;;;;6130757;23;19905;-79
2021/10/23 02:50:31;;;;;;;;;;;14.70;99.90;;;;;;6130606;23;19915;-79
2021/10/23 02:52:57;;;;;;;;;;;14.80;99.90;;;;;;6130168;23;19956;-79
2021/10/23 02:55:22;;;;;;;;;;;14.90;99.90;;;;;;6129559;23;19911;-79
2021/10/23 02:57:48;;;;;;;;;;;15.00;99.90;;;;;;6128994;23;19909;-78
2021/10/23 03:00:14;;;;;;;;;;;15.00;99.90;;;;;;6128075;23;19911;-77
2021/10/23 03:02:40;;;;;;;;;;;15.00;99.90;;;;;;6129389;23;19905;-79
2021/10/23 03:05:06;;;;;;;;;;;15.00;99.90;;;;;;6130105;23;20377;-79
2021/10/23 03:07:32;;;;;;;;;;;15.00;99.90;;;;;;6102795;23;19909;-78
2021/10/23 03:09:58;;;;;;;;;;;15.00;99.90;;;;;;6127930;23;20161;-78
2021/10/23 03:12:24;;;;;;;;;;;15.00;99.90;;;;;;6129161;23;19959;-78
2021/10/23 03:14:50;;;;;;;;;;;15.00;99.90;;;;;;6103033;23;19905;-79
2021/10/23 03:17:15;;;;;;;;;;;15.00;99.90;;;;;;6102552;23;19905;-78
2021/10/23 03:19:41;;;;;;;;;;;15.00;99.90;;;;;;6129398;23;19912;-78
2021/10/23 03:22:07;;;;;;;;;;;14.90;99.90;;;;;;6129184;23;20221;-78
2021/10/23 03:24:32;;;;;;;;;;;14.90;99.90;;;;;;6128331;23;19932;-81
2021/10/23 03:26:58;;;;;;;;;;;14.90;99.90;;;;;;6128007;23;19963;-78
2021/10/23 03:29:24;;;;;;;;;;;14.90;99.90;;;;;;6128526;23;19912;-78
2021/10/23 03:31:50;;;;;;;;;;;14.80;99.90;;;;;;6127895;23;19905;-79
2021/10/23 03:34:15;;;;;;;;;;;14.70;99.90;;;;;;6128783;23;19933;-81
2021/10/23 03:36:41;;;;;;;;;;;14.70;99.90;;;;;;6128648;23;19912;-78
2021/10/23 03:39:07;;;;;;;;;;;14.60;99.90;;;;;;6128532;23;19927;-78
2021/10/23 03:41:32;;;;;;;;;;;14.50;99.90;;;;;;6128991;23;19905;-79
2021/10/23 03:43:58;;;;;;;;;;;14.40;99.90;;;;;;6102760;23;19908;-78
2021/10/23 03:46:23;;;;;;;;;;;14.40;99.90;;;;;;6102062;23;19913;-81
2021/10/23 03:48:49;;;;;;;;;;;14.30;99.90;;;;;;6128837;23;19922;-78
2021/10/23 03:51:15;;;;;;;;;;;14.30;99.90;;;;;;6126998;23;19905;-79
2021/10/23 03:53:41;;;;;;;;;;;14.30;99.90;;;;;;6128923;23;19912;-78
2021/10/23 03:56:06;;;;;;;;;;;14.20;99.90;;;;;;6102470;23;20223;-78
2021/10/23 03:58:32;;;;;;;;;;;14.10;99.90;;;;;;6127694;23;20011;-79
2021/10/23 04:00:58;;;;;;;;;;;14.10;99.90;;;;;;6126820;23;19909;-78
2021/10/23 04:03:24;;;;;;;;;;;14.10;99.90;;;;;;6127652;23;20325;-78
2021/10/23 04:05:50;;;;;;;;;;;14.10;99.90;;;;;;6127433;23;19928;-79
2021/10/23 04:08:16;;;;;;;;;;;14.10;99.90;;;;;;6128101;23;19915;-78
2021/10/23 04:10:41;;;;;;;;;;;14.00;99.90;;;;;;6128437;23;19905;-79
2021/10/23 04:13:07;;;;;;;;;;;14.00;99.90;;;;;;6128891;23;19911;-78
2021/10/23 04:15:33;;;;;;;;;;;14.10;99.90;;;;;;6128252;23;19981;-79
2021/10/23 04:17:59;;;;;;;;;;;14.00;99.90;;;;;;6127860;23;19916;-78
2021/10/23 04:20:25;;;;;;;;;;;14.10;99.90;;;;;;6102444;23;19905;-78
2021/10/23 04:22:51;;;;;;;;;;;14.00;99.90;;;;;;6128217;23;20222;-78
2021/10/23 04:25:19;;;;;;;;;;;14.10;99.90;;;;;;6128753;23;19944;-78
2021/10/23 04:27:45;;;;;;;;;;;14.10;99.90;;;;;;6102983;23;19909;-78
2021/10/23 04:30:11;;;;;;;;;;;14.10;99.90;;;;;;6102008;23;19939;-78
2021/10/23 04:32:37;;;;;;;;;;;14.00;99.90;;;;;;6129356;23;20326;-79
2021/10/23 04:35:03;;;;;;;;;;;14.00;99.90;;;;;;6127715;23;20325;-79
2021/10/23 04:37:30;;;;;;;;;;;14.20;99.90;;;;;;6102004;23;19913;-78
2021/10/23 04:39:56;;;;;;;;;;;14.40;99.90;;;;;;6133795;23;19905;-77
2021/10/23 04:42:22;;;;;;;;;;;14.50;99.90;;;;;;6133761;23;19912;-78
2021/10/23 04:44:47;;;;;;;;;;;14.60;99.90;;;;;;6134036;23;19928;-78
2021/10/23 04:47:13;;;;;;;;;;;14.60;99.90;;;;;;6134055;23;19912;-78
2021/10/23 04:49:39;;;;;;;;;;;14.70;99.90;;;;;;6130038;23;20308;-78
2021/10/23 04:52:04;;;;;;;;;;;14.70;99.90;;;;;;6127128;23;19988;-78
2021/10/23 04:54:30;;;;;;;;;;;14.70;99.90;;;;;;6127649;23;19905;-78
2021/10/23 04:56:56;;;;;;;;;;;14.60;99.90;;;;;;6134097;23;19905;-78
2021/10/23 04:59:21;;;;;;;;;;;14.60;99.90;;;;;;6110615;23;19928;-78
2021/10/23 05:01:47;;;;;;;;;;;14.70;99.90;;;;;;6131351;23;19929;-78
2021/10/23 05:04:13;;;;;;;;;;;14.80;99.90;;;;;;6132408;23;20000;-78
2021/10/23 05:06:38;;;;;;;;;;;14.70;99.90;;;;;;6133808;23;19978;-78
2021/10/23 05:09:04;;;;;;;;;;;14.80;99.90;;;;;;6132617;23;19941;-79
2021/10/23 05:11:29;;;;;;;;;;;14.80;99.90;;;;;;6127638;23;19921;-78
2021/10/23 05:13:55;;;;;;;;;;;14.80;99.90;;;;;;6128171;23;19911;-79
2021/10/23 05:16:21;;;;;;;;;;;14.90;99.90;;;;;;6128370;23;19905;-79
2021/10/23 05:18:49;;;;;;;;;;;14.90;99.90;;;;;;6128074;23;19980;-78
2021/10/23 05:21:16;;;;;;;;;;;14.70;99.90;;;;;;6129518;23;19912;-79
2021/10/23 05:23:41;;;;;;;;;;;14.60;99.90;;;;;;6102823;23;19905;-79
2021/10/23 05:26:07;;;;;;;;;;;14.50;99.90;;;;;;6129672;23;20281;-79
2021/10/23 05:28:33;;;;;;;;;;;14.40;99.90;;;;;;6128965;23;19905;-79
2021/10/23 05:30:59;;;;;;;;;;;14.30;99.90;;;;;;6128247;23;19916;-79
2021/10/23 05:33:25;;;;;;;;;;;14.30;99.90;;;;;;6129651;23;20326;-79
2021/10/23 05:35:50;;;;;;;;;;;14.30;99.90;;;;;;6128606;23;19913;-78
2021/10/23 05:38:16;;;;;;;;;;;14.30;99.90;;;;;;6127375;23;19905;-79
2021/10/23 05:40:42;;;;;;;;;;;14.20;99.90;;;;;;6129689;23;19916;-79
2021/10/23 05:43:07;;;;;;;;;;;14.20;99.90;;;;;;6130216;23;19961;-79
2021/10/23 05:45:33;;;;;;;;;;;14.30;99.90;;;;;;6128673;23;19909;-78
2021/10/23 05:47:59;;;;;;;;;;;14.60;99.90;;;;;;6128267;23;19952;-80
2021/10/23 05:50:24;;;;;;;;;;;14.90;99.90;;;;;;6129443;23;19909;-78
2021/10/23 05:52:50;;;;;;;;;;;14.90;99.90;;;;;;6129029;23;19933;-81
2021/10/23 05:55:16;;;;;;;;;;;14.80;99.90;;;;;;6128369;23;19904;-78
2021/10/23 05:57:41;;;;;;;;;;;14.60;99.90;;;;;;6126826;23;19905;-79
2021/10/23 06:00:10;;;;;;;;;;;14.60;99.90;;;;;;6129598;23;19905;-79
2021/10/23 06:02:37;;;;;;;;;;;14.60;99.90;;;;;;6129350;23;19905;-78
2021/10/23 06:05:03;;;;;;;;;;;14.60;99.90;;;;;;6102851;23;19905;-78
2021/10/23 06:07:32;;;;;;;;;;;14.70;99.90;;;;;;6128149;23;19912;-79
2021/10/23 06:09:58;;;;;;;;;;;14.60;99.90;;;;;;6128934;23;20337;-79
2021/10/23 06:12:26;;;;;;;;;;;14.70;99.90;;;;;;6128058;23;19912;-78
2021/10/23 06:14:52;;;;;;;;;;;14.70;99.90;;;;;;6128032;23;19905;-78
2021/10/23 06:17:18;;;;;;;;;;;14.70;99.90;;;;;;6128579;23;19916;-78
2021/10/23 06:19:44;;;;;;;;;;;14.80;99.90;;;;;;6101008;23;19909;-78
2021/10/23 06:22:09;;;;;;;;;;;15.00;99.90;;;;;;6125511;23;19905;-79
2021/10/23 06:24:35;;;;;;;;;;;15.00;99.90;;;;;;6124720;23;19956;-78
2021/10/23 06:27:01;;;;;;;;;;;15.10;99.90;;;;;;6125197;23;20222;-78
2021/10/23 06:29:27;;;;;;;;;;;15.10;99.90;;;;;;6126110;23;19951;-79
2021/10/23 06:31:53;;;;;;;;;;;15.10;99.90;;;;;;6126421;23;19912;-78
2021/10/23 06:34:19;;;;;;;;;;;15.20;99.90;;;;;;6126400;23;19905;-79
2021/10/23 06:36:44;;;;;;;;;;;15.20;99.90;;;;;;6124903;23;19913;-78
2021/10/23 06:39:10;;;;;;;;;;;15.40;99.90;;;;;;6126031;23;19913;-78
2021/10/23 06:41:36;;;;;;;;;;;15.40;99.90;;;;;;6126239;23;19912;-78
2021/10/23 06:44:02;;;;;;;;;;;15.50;99.90;;;;;;6126530;23;20348;-78
2021/10/23 06:46:28;;;;;;;;;;;15.60;99.90;;;;;;6125676;23;20329;-79
2021/10/23 06:48:54;;;;;;;;;;;15.60;99.90;;;;;;6125578;23;19956;-78
2021/10/23 06:51:19;;;;;;;;;;;15.80;99.90;;;;;;6100576;23;19905;-78
2021/10/23 06:53:45;;;;;;;;;;;15.80;99.90;;;;;;6127654;23;19905;-78
2021/10/23 06:56:11;;;;;;;;;;;15.90;99.90;;;;;;6128405;23;19905;-77
2021/10/23 06:58:36;;;;;;;;;;;16.00;99.90;;;;;;6126393;23;20036;-78
2021/10/23 07:01:04;;;;;;;;;;;16.00;99.90;;;;;;6126561;23;19905;-78
2021/10/23 07:03:30;;;;;;;;;;;16.00;99.90;;;;;;6128397;23;19905;-79
2021/10/23 07:05:56;;;;;;;;;;;16.10;99.90;;;;;;6127432;23;19905;-78
2021/10/23 07:08:22;;;;;;;;;;;16.10;99.90;;;;;;6128107;23;19916;-81
2021/10/23 07:10:48;;;;;;;;;;;16.20;99.90;;;;;;6133404;23;19913;-78
2021/10/23 07:13:13;;;;;;;;;;;16.20;99.90;;;;;;6142484;23;19964;-78
2021/10/23 07:15:39;;;;;;;;;;;16.20;99.90;;;;;;6145673;23;19905;-79
2021/10/23 07:18:05;;;;;;;;;;;16.20;99.90;;;;;;6146345;23;19920;-79
2021/10/23 07:20:32;;;;;;;;;;;16.20;99.90;;;;;;6143103;23;19909;-79
2021/10/23 07:22:58;;;;;;;;;;;16.30;99.90;;;;;;6135435;23;19909;-79
2021/10/23 07:25:25;;;;;;;;;;;16.40;99.90;;;;;;6122502;23;19905;-79
2021/10/23 07:27:52;;;;;;;;;;;16.40;99.90;;;;;;6147003;23;19901;-78
2021/10/23 07:30:18;;;;;;;;;;;16.30;99.90;;;;;;6148288;23;19897;-79
2021/10/23 07:32:43;;;;;;;;;;;16.30;99.90;;;;;;6148833;23;19905;-78
2021/10/23 07:35:10;;;;;;;;;;;16.40;99.90;;;;;;6148671;23;19908;-78
2021/10/23 07:37:35;;;;;;;;;;;16.40;99.90;;;;;;6134826;23;20325;-79
2021/10/23 07:40:02;;;;;;;;;;;16.40;99.90;;;;;;6128407;23;19946;-78
2021/10/23 07:42:28;;;;;;;;;;;16.40;99.90;;;;;;6128328;23;19983;-78
2021/10/23 07:44:54;;;;;;;;;;;16.40;99.90;;;;;;6102377;23;19909;-78
2021/10/23 07:47:19;;;;;;;;;;;16.40;99.90;;;;;;6128926;23;19948;-78
2021/10/23 07:49:46;;;;;;;;;;;16.50;99.90;;;;;;6128412;23;19937;-78
2021/10/23 07:52:12;;;;;;;;;;;16.60;99.90;;;;;;6129781;23;19909;-78
2021/10/23 07:54:38;;;;;;;;;;;16.70;99.90;;;;;;6102793;23;19905;-78
2021/10/23 07:57:04;;;;;;;;;;;16.70;99.90;;;;;;6128299;23;20314;-79
2021/10/23 07:59:30;;;;;;;;;;;16.80;99.90;;;;;;6103145;23;19940;-78
2021/10/23 08:01:59;;;;;;;;;;;16.90;99.90;;;;;;6128749;23;19928;-78
2021/10/23 08:04:25;;;;;;;;;;;17.00;99.90;;;;;;6128661;23;20222;-78
2021/10/23 08:06:51;;;;;;;;;;;17.00;99.90;;;;;;6128319;23;19979;-79
2021/10/23 08:09:17;;;;;;;;;;;17.10;99.90;;;;;;6102562;23;19909;-78
2021/10/23 08:11:43;;;;;;;;;;;17.20;99.90;;;;;;6129265;23;20359;-78
2021/10/23 08:14:09;;;;;;;;;;;17.30;99.90;;;;;;6128917;23;19916;-78
2021/10/23 08:16:35;;;;;;;;;;;17.40;99.90;;;;;;6129038;23;19912;-78
2021/10/23 08:19:01;;;;;;;;;;;17.50;99.90;;;;;;6128652;23;19988;-78
2021/10/23 08:21:27;;;;;;;;;;;17.60;99.90;;;;;;6129198;23;20329;-78
2021/10/23 08:23:53;;;;;;;;;;;17.60;99.90;;;;;;6128476;23;19912;-78
2021/10/23 08:26:19;;;;;;;;;;;17.50;99.90;;;;;;6128254;23;19912;-78
2021/10/23 08:28:44;;;;;;;;;;;17.50;99.90;;;;;;6128614;23;19999;-78
2021/10/23 08:31:10;;;;;;;;;;;17.50;99.90;;;;;;6129849;23;20218;-79
2021/10/23 08:33:36;;;;;;;;;;;17.50;99.90;;;;;;6128822;23;19905;-78
2021/10/23 08:36:04;;;;;;;;;;;17.70;99.90;;;;;;6126556;23;20083;-78
2021/10/23 08:38:30;;;;;;;;;;;17.80;99.90;;;;;;6126600;23;19905;-79
2021/10/23 08:40:56;;;;;;;;;;;17.90;99.90;;;;;;6127211;23;19927;-79
2021/10/23 08:43:22;;;;;;;;;;;18.10;99.90;;;;;;6127376;23;20211;-78
2021/10/23 08:45:51;;;;;;;;;;;18.10;99.90;;;;;;6127249;23;19916;-79
2021/10/23 08:48:17;;;;;;;;;;;18.20;99.90;;;;;;6127661;23;20261;-78
2021/10/23 08:50:42;;;;;;;;;;;18.20;99.90;;;;;;6127468;23;19908;-78
2021/10/23 08:53:08;;;;;;;;;;;18.20;99.90;;;;;;6126160;23;20035;-78
2021/10/23 08:55:34;;;;;;;;;;;18.20;99.90;;;;;;6127298;23;19928;-78
2021/10/23 08:58:00;;;;;;;;;;;18.20;99.90;;;;;;6127381;23;20317;-78
2021/10/23 09:00:26;;;;;;;;;;;18.20;99.90;;;;;;6128253;23;19905;-78
2021/10/23 09:02:52;;;;;;;;;;;18.20;99.90;;;;;;6129946;23;19905;-78
2021/10/23 09:05:19;;;;;;;;;;;18.30;99.90;;;;;;6126968;23;19905;-78
2021/10/23 09:07:48;;;;;;;;;;;18.40;99.90;;;;;;6128911;23;19905;-78
2021/10/23 09:10:24;;;;;;;;;;;18.40;99.90;;;;;;6128307;23;20040;-78
2021/10/23 09:12:58;;;;;;;;;;;18.20;99.90;;;;;;6128491;23;19963;-79
2021/10/23 09:15:23;;;;;;;;;;;18.20;99.90;;;;;;6128544;23;19984;-78
2021/10/23 09:17:50;;;;;;;;;;;18.20;99.90;;;;;;6128186;23;19912;-78
2021/10/23 09:20:17;;;;;;;;;;;18.20;99.90;;;;;;6128534;23;19908;-79
2021/10/23 09:22:43;;;;;;;;;;;18.20;99.90;;;;;;6128248;23;19912;-78
2021/10/23 09:25:15;;;;;;;;;;;18.20;99.90;;;;;;6127812;23;20035;-78
2021/10/23 09:28:00;;;;;;;;;;;18.30;99.90;;;;;;6128608;23;20285;-79
2021/10/23 09:30:31;;;;;;;;;;;18.30;99.90;;;;;;6129065;23;20332;-78
2021/10/23 09:33:03;;;;;;;;;;;18.30;99.90;;;;;;6127302;23;19904;-79
2021/10/23 09:35:29;;;;;;;;;;;18.40;99.90;;;;;;6128389;23;19909;-79
2021/10/23 09:37:56;;;;;;;;;;;18.60;99.90;;;;;;6125005;23;19925;-79
2021/10/23 09:40:22;;;;;;;;;;;18.70;99.90;;;;;;6125038;23;19912;-78
2021/10/23 09:43:04;;;;;;;;;;;18.50;99.90;;;;;;6126297;23;19916;-78
2021/10/23 09:45:29;;;;;;;;;;;18.50;99.90;;;;;;6102934;23;19933;-78
2021/10/23 09:48:03;;;;;;;;;;;18.40;99.90;;;;;;6103376;23;19905;-78
2021/10/23 09:50:29;;;;;;;;;;;18.40;99.90;;;;;;6128688;23;19909;-78
2021/10/23 09:53:02;;;;;;;;;;;18.50;99.90;;;;;;6128529;23;19912;-79
2021/10/23 09:55:35;;;;;;;;;;;18.50;99.90;;;;;;6129112;23;19909;-78
2021/10/23 09:58:20;;;;;;;;;;;18.50;99.90;;;;;;6103165;23;19920;-79
2021/10/23 10:00:47;;;;;;;;;;;18.50;99.90;;;;;;6128451;23;19905;-79
2021/10/23 10:03:13;;;;;;;;;;;18.50;99.90;;;;;;6130156;23;19912;-80
2021/10/23 10:05:39;;;;;;;;;;;18.60;99.90;;;;;;6128845;23;19909;-79
2021/10/23 10:08:09;;;;;;;;;;;18.40;99.90;;;;;;6129817;23;19912;-79
2021/10/23 10:10:37;;;;;;;;;;;18.20;99.90;;;;;;6103970;23;20348;-79
2021/10/23 10:13:03;;;;;;;;;;;18.20;99.90;;;;;;6103386;23;19929;-79
2021/10/23 10:15:30;;;;;;;;;;;18.20;99.90;;;;;;6129604;23;19913;-79
2021/10/23 10:17:59;;;;;;;;;;;18.10;99.90;;;;;;6129090;23;19905;-79
2021/10/23 10:20:25;;;;;;;;;;;17.80;99.90;;;;;;6127215;23;19952;-73
2021/10/23 10:22:52;;;;;;;;;;;17.80;99.90;;;;;;6126310;23;20406;-74
2021/10/23 10:25:19;;;;;;;;;;;17.90;99.90;;;;;;6127006;23;19904;-75
2021/10/23 10:27:48;;;;;;;;;;;17.80;99.90;;;;;;6126118;23;19905;-73
2021/10/23 10:30:22;;;;;;;;;;;17.80;99.90;;;;;;6126605;23;19909;-73
2021/10/23 10:32:47;;;;;;;;;;;17.70;99.90;;;;;;6101118;23;19905;-74
2021/10/23 10:38:09;;;;;;;;;;;17.80;99.90;;;;;;6137031;23;19973;-73
2021/10/23 10:43:05;;;;;;;;;;;17.60;99.90;;;;;;6127337;23;19905;-73
2021/10/23 10:45:31;;;;;;;;;;;17.60;99.90;;;;;;6102392;23;19908;-76
2021/10/23 10:48:15;;;;;;;;;;;17.50;99.90;;;;;;6127039;23;19960;-71
2021/10/23 10:50:41;;;;;;;;;;;17.40;99.90;;;;;;6128370;23;19915;-69
2021/10/23 10:53:19;;;;;;;;;;;17.50;99.90;;;;;;6128563;23;19905;-69
2021/10/23 10:55:46;;;;;;;;;;;17.50;99.90;;;;;;6128585;23;20338;-71
2021/10/23 10:58:12;;;;;;;;;;;17.50;99.90;;;;;;6102622;23;19952;-69
2021/10/23 11:00:52;;;;;;;;;;;17.60;99.90;;;;;;6128527;23;19904;-70
2021/10/23 11:03:32;;;;;;;;;;;17.60;99.90;;;;;;6128510;23;19972;-70
2021/10/23 11:06:18;;;;;;;;;;;17.50;99.90;;;;;;6128038;23;20000;-70
2021/10/23 11:08:43;;;;;;;;;;;17.40;99.90;;;;;;6125704;23;19905;-70
2021/10/23 11:11:09;;;;;;;;;;;17.60;99.90;;;;;;6126835;23;19905;-69
2021/10/23 11:13:42;;;;;;;;;;;17.50;99.90;;;;;;6128614;23;19905;-70
2021/10/23 11:16:24;;;;;;;;;;;17.50;99.90;;;;;;6128618;23;19912;-70
2021/10/23 11:18:58;;;;;;;;;;;17.50;99.90;;;;;;6128433;23;19984;-70
2021/10/23 11:21:24;;;;;;;;;;;17.60;99.90;;;;;;6128934;23;19912;-70
2021/10/23 11:23:50;;;;;;;;;;;17.70;99.90;;;;;;6128210;23;19905;-70
2021/10/23 11:26:17;;;;;;;;;;;17.80;99.90;;;;;;6102044;23;19933;-69
2021/10/23 11:28:43;;;;;;;;;;;17.80;99.90;;;;;;6128127;23;19905;-70
2021/10/23 11:31:16;;;;;;;;;;;17.90;99.90;;;;;;6127420;23;19959;-69
2021/10/23 11:33:42;;;;;;;;;;;17.90;99.90;;;;;;6127972;23;19925;-74
2021/10/23 11:36:17;;;;;;;;;;;17.90;99.90;;;;;;6127173;23;20261;-74
2021/10/23 11:38:51;;;;;;;;;;;17.90;99.90;;;;;;6127786;23;19905;-73
2021/10/23 11:41:27;;;;;;;;;;;17.90;99.90;;;;;;6101997;23;19916;-74
2021/10/23 11:44:04;;;;;;;;;;;17.90;99.90;;;;;;6127991;23;20252;-74
2021/10/23 11:46:29;;;;;;;;;;;17.90;99.90;;;;;;6128077;23;19904;-74
2021/10/23 11:49:00;;;;;;;;;;;17.80;99.90;;;;;;6101819;23;20353;-74
2021/10/23 11:51:25;;;;;;;;;;;17.90;99.90;;;;;;6128798;23;20229;-74
2021/10/23 11:53:57;;;;;;;;;;;17.70;99.90;;;;;;6128343;23;19905;-74
2021/10/23 11:56:23;;;;;;;;;;;17.50;99.90;;;;;;6128066;23;19952;-74
2021/10/23 11:58:53;;;;;;;;;;;17.40;99.90;;;;;;6128077;23;19905;-76
2021/10/23 12:01:22;;;;;;;;;;;17.50;99.90;;;;;;6127858;23;19912;-74
2021/10/23 12:03:52;;;;;;;;;;;17.60;99.90;;;;;;6128923;23;20292;-74
2021/10/23 12:06:22;;;;;;;;;;;17.50;99.90;;;;;;6128628;23;20249;-75
2021/10/23 12:08:48;;;;;;;;;;;17.50;99.90;;;;;;6128754;23;19912;-75
2021/10/23 12:11:19;;;;;;;;;;;17.40;99.90;;;;;;6127035;23;20245;-75
2021/10/23 12:13:50;;;;;;;;;;;17.50;99.90;;;;;;6102586;23;19905;-75
2021/10/23 12:16:33;;;;;;;;;;;17.30;99.90;;;;;;6128199;23;19905;-75
2021/10/23 12:19:17;;;;;;;;;;;17.40;99.90;;;;;;6128738;23;19908;-75
2021/10/23 12:21:54;;;;;;;;;;;17.40;99.90;;;;;;6129305;23;19909;-75
2021/10/23 12:24:24;;;;;;;;;;;17.40;99.90;;;;;;6135997;23;19992;-76
2021/10/23 12:27:02;;;;;;;;;;;17.40;99.90;;;;;;6107771;23;20368;-75
2021/10/23 12:29:36;;;;;;;;;;;17.40;99.90;;;;;;6136380;23;20240;-78
2021/10/23 12:32:03;;;;;;;;;;;17.10;99.90;;;;;;6132093;23;19905;-76
2021/10/23 12:34:48;;;;;;;;;;;17.30;99.90;;;;;;6128384;23;20195;-77
2021/10/23 12:37:14;;;;;;;;;;;17.30;99.90;;;;;;6102261;23;20301;-75
2021/10/23 12:39:40;;;;;;;;;;;17.10;99.90;;;;;;6134498;23;20036;-76
2021/10/23 12:42:06;;;;;;;;;;;17.10;99.90;;;;;;6135111;23;19904;-75
2021/10/23 12:44:32;;;;;;;;;;;17.00;99.90;;;;;;6132586;23;20246;-75
2021/10/23 12:46:57;;;;;;;;;;;17.00;99.90;;;;;;6133732;23;19912;-78
2021/10/23 12:49:23;;;;;;;;;;;16.90;99.90;;;;;;6134626;23;19909;-75
2021/10/23 12:51:49;;;;;;;;;;;16.70;99.90;;;;;;6128837;23;19941;-75
2021/10/23 12:54:16;;;;;;;;;;;16.70;99.90;;;;;;6128597;23;19959;-75
2021/10/23 12:56:42;;;;;;;;;;;16.70;99.90;;;;;;6129621;23;19905;-75
2021/10/23 12:59:10;;;;;;;;;;;16.60;99.90;;;;;;6132966;23;19905;-75
2021/10/23 13:01:36;;;;;;;;;;;16.80;99.90;;;;;;6129889;23;19948;-75
2021/10/23 13:04:03;;;;;;;;;;;16.80;99.90;;;;;;6127970;23;19905;-73
2021/10/23 13:06:29;;;;;;;;;;;16.90;99.90;;;;;;6127845;23;19987;-73
2021/10/23 13:08:54;;;;;;;;;;;16.70;99.90;;;;;;6127694;23;20340;-74
2021/10/23 13:11:20;;;;;;;;;;;16.50;99.90;;;;;;6128048;23;19929;-73
2021/10/23 13:13:46;;;;;;;;;;;16.40;99.90;;;;;;6127227;23;19913;-74
2021/10/23 13:16:12;;;;;;;;;;;16.40;99.90;;;;;;6128461;23;19951;-74
2021/10/23 13:18:38;;;;;;;;;;;16.50;99.90;;;;;;6128163;23;20311;-74
2021/10/23 13:21:04;;;;;;;;;;;16.50;99.90;;;;;;6127922;23;20379;-73
2021/10/23 13:23:30;;;;;;;;;;;16.50;99.90;;;;;;6129173;23;19905;-74
2021/10/23 13:25:55;;;;;;;;;;;16.50;99.90;;;;;;6128488;23;19993;-74
2021/10/23 13:28:21;;;;;;;;;;;16.50;99.90;;;;;;6127813;23;19905;-74
2021/10/23 13:30:47;;;;;;;;;;;16.60;99.90;;;;;;6128040;23;19920;-74
2021/10/23 13:33:13;;;;;;;;;;;16.60;99.90;;;;;;6126955;23;20026;-74
2021/10/23 13:35:39;;;;;;;;;;;16.70;99.90;;;;;;6126279;23;19916;-74
2021/10/23 13:38:04;;;;;;;;;;;16.60;99.90;;;;;;6127253;23;19984;-74
2021/10/23 13:40:30;;;;;;;;;;;16.50;99.90;;;;;;6127705;23;19905;-75
2021/10/23 13:42:56;;;;;;;;;;;16.50;99.90;;;;;;6128036;23;20257;-75
2021/10/23 13:45:22;;;;;;;;;;;16.60;99.90;;;;;;6128042;23;19908;-75
2021/10/23 13:47:48;;;;;;;;;;;16.50;99.90;;;;;;6101485;23;19968;-75
2021/10/23 13:50:13;;;;;;;;;;;16.50;99.90;;;;;;6127457;23;19916;-78
2021/10/23 13:52:39;;;;;;;;;;;16.60;99.90;;;;;;6127649;23;19912;-74
2021/10/23 13:55:05;;;;;;;;;;;16.60;99.90;;;;;;6127148;23;19932;-77
2021/10/23 13:57:31;;;;;;;;;;;16.60;99.90;;;;;;6126665;23;20253;-75
2021/10/23 13:59:57;;;;;;;;;;;16.60;99.90;;;;;;6126999;23;19933;-75
2021/10/23 14:02:24;;;;;;;;;;;16.50;99.90;;;;;;6126922;23;20203;-75
2021/10/23 14:04:50;;;;;;;;;;;16.70;99.90;;;;;;6127149;23;20748;-75
2021/10/23 14:07:15;;;;;;;;;;;16.70;99.90;;;;;;6126814;23;19912;-75
2021/10/23 14:09:41;;;;;;;;;;;16.70;99.90;;;;;;6126929;23;19916;-75
2021/10/23 14:12:07;;;;;;;;;;;16.60;99.90;;;;;;6100575;23;19905;-75
2021/10/23 14:14:32;;;;;;;;;;;16.60;99.90;;;;;;6127435;23;19905;-75
2021/10/23 14:16:58;;;;;;;;;;;16.50;99.90;;;;;;6126774;23;20242;-75
2021/10/23 14:19:24;;;;;;;;;;;16.60;99.90;;;;;;6127224;23;19905;-75